sensor_id;sensor_type;location;lat;lon;timestamp;P1;durP1;ratioP1;P2;durP2;ratioP2
5085;SDS011;4715;51.660;7.082;2024-02-14T00:00:03;3.30;;;3.10;;
5085;SDS011;4715;51.660;7.082;2024-02-14T00:02:25;5.20;;;3.00;;
5085;SDS011;4715;51.660;7.082;2024-02-14T00:04:49;3.37;;;3.17;;
5085;SDS011;4715;51.660;7.082;2024-02-14T00:07:11;4.70;;;4.00;;
5085;SDS011;4715;51.660;7.082;2024-02-14T00:09:34;3.70;;;3.40;;
5085;SDS011;4715;51.660;7.082;2024-02-14T00:11:56;3.40;;;3.03;;
5085;SDS011;4715;51.660;7.082;2024-02-14T00:14:18;4.10;;;3.00;;
5085;SDS011;4715;51.660;7.082;2024-02-14T00:16:40;4.27;;;3.30;;
5085;SDS011;4715;51.660;7.082;2024-02-14T00:19:05;3.23;;;3.03;;
5085;SDS011;4715;51.660;7.082;2024-02-14T00:21:27;5.83;;;4.23;;
5085;SDS011;4715;51.660;7.082;2024-02-14T00:23:49;3.60;;;3.33;;
5085;SDS011;4715;51.660;7.082;2024-02-14T00:26:15;3.63;;;3.03;;
5085;SDS011;4715;51.660;7.082;2024-02-14T00:28:41;3.10;;;2.37;;
5085;SDS011;4715;51.660;7.082;2024-02-14T00:31:03;5.10;;;3.53;;
5085;SDS011;4715;51.660;7.082;2024-02-14T00:33:30;4.80;;;3.70;;
5085;SDS011;4715;51.660;7.082;2024-02-14T00:35:51;3.80;;;3.37;;
5085;SDS011;4715;51.660;7.082;2024-02-14T00:38:14;3.20;;;2.97;;
5085;SDS011;4715;51.660;7.082;2024-02-14T00:40:38;4.20;;;2.80;;
5085;SDS011;4715;51.660;7.082;2024-02-14T00:43:04;5.77;;;3.97;;
5085;SDS011;4715;51.660;7.082;2024-02-14T00:45:27;3.60;;;2.90;;
5085;SDS011;4715;51.660;7.082;2024-02-14T00:47:49;5.63;;;3.77;;
5085;SDS011;4715;51.660;7.082;2024-02-14T00:50:12;3.33;;;2.97;;
5085;SDS011;4715;51.660;7.082;2024-02-14T00:52:34;3.00;;;2.73;;
5085;SDS011;4715;51.660;7.082;2024-02-14T00:54:56;6.27;;;3.87;;
5085;SDS011;4715;51.660;7.082;2024-02-14T00:57:19;3.50;;;2.80;;
5085;SDS011;4715;51.660;7.082;2024-02-14T00:59:54;4.63;;;4.03;;
5085;SDS011;4715;51.660;7.082;2024-02-14T01:02:19;3.17;;;2.97;;
5085;SDS011;4715;51.660;7.082;2024-02-14T01:04:43;3.63;;;3.33;;
5085;SDS011;4715;51.660;7.082;2024-02-14T01:07:05;4.00;;;3.43;;
5085;SDS011;4715;51.660;7.082;2024-02-14T01:09:28;3.30;;;3.10;;
5085;SDS011;4715;51.660;7.082;2024-02-14T01:11:50;3.77;;;3.00;;
5085;SDS011;4715;51.660;7.082;2024-02-14T01:14:13;4.93;;;3.10;;
5085;SDS011;4715;51.660;7.082;2024-02-14T01:16:42;5.33;;;3.27;;
5085;SDS011;4715;51.660;7.082;2024-02-14T01:19:06;4.63;;;3.60;;
5085;SDS011;4715;51.660;7.082;2024-02-14T01:21:28;3.80;;;3.00;;
5085;SDS011;4715;51.660;7.082;2024-02-14T01:23:53;8.50;;;3.40;;
5085;SDS011;4715;51.660;7.082;2024-02-14T01:26:15;5.70;;;3.20;;
5085;SDS011;4715;51.660;7.082;2024-02-14T01:28:39;3.00;;;2.80;;
5085;SDS011;4715;51.660;7.082;2024-02-14T01:31:03;4.87;;;3.47;;
5085;SDS011;4715;51.660;7.082;2024-02-14T01:33:28;3.50;;;3.20;;
5085;SDS011;4715;51.660;7.082;2024-02-14T01:35:50;6.23;;;3.00;;
5085;SDS011;4715;51.660;7.082;2024-02-14T01:38:13;3.53;;;2.80;;
5085;SDS011;4715;51.660;7.082;2024-02-14T01:40:35;4.63;;;2.77;;
5085;SDS011;4715;51.660;7.082;2024-02-14T01:42:59;6.03;;;2.60;;
5085;SDS011;4715;51.660;7.082;2024-02-14T01:45:21;5.33;;;3.20;;
5085;SDS011;4715;51.660;7.082;2024-02-14T01:47:43;3.10;;;2.60;;
5085;SDS011;4715;51.660;7.082;2024-02-14T01:50:11;2.63;;;2.43;;
5085;SDS011;4715;51.660;7.082;2024-02-14T01:52:33;4.40;;;3.50;;
5085;SDS011;4715;51.660;7.082;2024-02-14T01:54:57;6.00;;;2.93;;
5085;SDS011;4715;51.660;7.082;2024-02-14T01:57:19;5.67;;;2.80;;
5085;SDS011;4715;51.660;7.082;2024-02-14T01:59:43;5.03;;;2.90;;
5085;SDS011;4715;51.660;7.082;2024-02-14T02:02:06;2.70;;;2.50;;
5085;SDS011;4715;51.660;7.082;2024-02-14T02:04:28;2.33;;;2.10;;
5085;SDS011;4715;51.660;7.082;2024-02-14T02:06:51;2.57;;;2.37;;
5085;SDS011;4715;51.660;7.082;2024-02-14T02:09:16;3.70;;;2.10;;
5085;SDS011;4715;51.660;7.082;2024-02-14T02:11:42;3.30;;;3.00;;
5085;SDS011;4715;51.660;7.082;2024-02-14T02:14:08;5.50;;;2.37;;
5085;SDS011;4715;51.660;7.082;2024-02-14T02:16:32;2.50;;;2.30;;
5085;SDS011;4715;51.660;7.082;2024-02-14T02:18:54;3.70;;;2.30;;
5085;SDS011;4715;51.660;7.082;2024-02-14T02:21:16;6.87;;;2.47;;
5085;SDS011;4715;51.660;7.082;2024-02-14T02:23:41;6.50;;;2.90;;
5085;SDS011;4715;51.660;7.082;2024-02-14T02:26:04;2.20;;;2.10;;
5085;SDS011;4715;51.660;7.082;2024-02-14T02:28:25;2.93;;;2.73;;
5085;SDS011;4715;51.660;7.082;2024-02-14T02:30:48;2.20;;;2.10;;
5085;SDS011;4715;51.660;7.082;2024-02-14T02:33:11;3.10;;;2.40;;
5085;SDS011;4715;51.660;7.082;2024-02-14T02:35:33;4.70;;;2.83;;
5085;SDS011;4715;51.660;7.082;2024-02-14T02:37:58;4.83;;;2.37;;
5085;SDS011;4715;51.660;7.082;2024-02-14T02:40:22;2.47;;;2.27;;
5085;SDS011;4715;51.660;7.082;2024-02-14T02:42:44;2.93;;;2.70;;
5085;SDS011;4715;51.660;7.082;2024-02-14T02:45:08;3.70;;;2.80;;
5085;SDS011;4715;51.660;7.082;2024-02-14T02:47:30;4.67;;;2.53;;
5085;SDS011;4715;51.660;7.082;2024-02-14T02:49:53;4.00;;;2.30;;
5085;SDS011;4715;51.660;7.082;2024-02-14T02:52:23;4.60;;;2.73;;
5085;SDS011;4715;51.660;7.082;2024-02-14T02:54:45;2.60;;;2.50;;
5085;SDS011;4715;51.660;7.082;2024-02-14T02:57:08;2.30;;;2.10;;
5085;SDS011;4715;51.660;7.082;2024-02-14T02:59:30;4.23;;;2.63;;
5085;SDS011;4715;51.660;7.082;2024-02-14T03:01:55;3.93;;;2.90;;
5085;SDS011;4715;51.660;7.082;2024-02-14T03:04:18;2.60;;;2.40;;
5085;SDS011;4715;51.660;7.082;2024-02-14T03:06:39;2.83;;;2.50;;
5085;SDS011;4715;51.660;7.082;2024-02-14T03:09:05;3.00;;;2.30;;
5085;SDS011;4715;51.660;7.082;2024-02-14T03:11:28;2.50;;;2.30;;
5085;SDS011;4715;51.660;7.082;2024-02-14T03:13:51;3.10;;;2.57;;
5085;SDS011;4715;51.660;7.082;2024-02-14T03:16:13;2.97;;;2.73;;
5085;SDS011;4715;51.660;7.082;2024-02-14T03:18:41;2.23;;;2.13;;
5085;SDS011;4715;51.660;7.082;2024-02-14T03:21:03;2.20;;;2.00;;
5085;SDS011;4715;51.660;7.082;2024-02-14T03:23:26;3.53;;;2.27;;
5085;SDS011;4715;51.660;7.082;2024-02-14T03:25:48;2.90;;;2.10;;
5085;SDS011;4715;51.660;7.082;2024-02-14T03:28:12;3.40;;;2.70;;
5085;SDS011;4715;51.660;7.082;2024-02-14T03:30:36;2.43;;;2.33;;
5085;SDS011;4715;51.660;7.082;2024-02-14T03:32:59;2.60;;;2.40;;
5085;SDS011;4715;51.660;7.082;2024-02-14T03:35:22;2.53;;;2.37;;
5085;SDS011;4715;51.660;7.082;2024-02-14T03:37:45;3.53;;;2.10;;
5085;SDS011;4715;51.660;7.082;2024-02-14T03:40:09;3.20;;;2.50;;
5085;SDS011;4715;51.660;7.082;2024-02-14T03:42:33;2.43;;;2.23;;
5085;SDS011;4715;51.660;7.082;2024-02-14T03:44:55;3.17;;;2.53;;
5085;SDS011;4715;51.660;7.082;2024-02-14T03:47:24;3.63;;;3.43;;
5085;SDS011;4715;51.660;7.082;2024-02-14T03:49:45;3.67;;;3.37;;
5085;SDS011;4715;51.660;7.082;2024-02-14T03:52:07;3.23;;;2.93;;
5085;SDS011;4715;51.660;7.082;2024-02-14T03:54:32;3.43;;;2.90;;
5085;SDS011;4715;51.660;7.082;2024-02-14T03:56:55;4.97;;;2.73;;
5085;SDS011;4715;51.660;7.082;2024-02-14T03:59:17;2.87;;;2.67;;
5085;SDS011;4715;51.660;7.082;2024-02-14T04:01:44;5.70;;;2.90;;
5085;SDS011;4715;51.660;7.082;2024-02-14T04:04:07;3.40;;;3.20;;
5085;SDS011;4715;51.660;7.082;2024-02-14T04:06:32;3.87;;;3.13;;
5085;SDS011;4715;51.660;7.082;2024-02-14T04:08:54;2.87;;;2.67;;
5085;SDS011;4715;51.660;7.082;2024-02-14T04:11:16;5.43;;;3.10;;
5085;SDS011;4715;51.660;7.082;2024-02-14T04:13:40;2.90;;;2.70;;
5085;SDS011;4715;51.660;7.082;2024-02-14T04:16:06;4.07;;;3.77;;
5085;SDS011;4715;51.660;7.082;2024-02-14T04:18:29;5.53;;;3.50;;
5085;SDS011;4715;51.660;7.082;2024-02-14T04:20:52;5.33;;;4.00;;
5085;SDS011;4715;51.660;7.082;2024-02-14T04:23:13;9.83;;;4.17;;
5085;SDS011;4715;51.660;7.082;2024-02-14T04:25:35;10.53;;;4.33;;
5085;SDS011;4715;51.660;7.082;2024-02-14T04:27:57;5.27;;;4.87;;
5085;SDS011;4715;51.660;7.082;2024-02-14T04:30:20;6.10;;;5.57;;
5085;SDS011;4715;51.660;7.082;2024-02-14T04:32:42;6.37;;;5.57;;
5085;SDS011;4715;51.660;7.082;2024-02-14T04:35:04;5.13;;;4.73;;
5085;SDS011;4715;51.660;7.082;2024-02-14T04:37:26;6.73;;;6.23;;
5085;SDS011;4715;51.660;7.082;2024-02-14T04:39:49;7.40;;;6.80;;
5085;SDS011;4715;51.660;7.082;2024-02-14T04:42:11;5.97;;;5.50;;
5085;SDS011;4715;51.660;7.082;2024-02-14T04:44:33;5.60;;;5.30;;
5085;SDS011;4715;51.660;7.082;2024-02-14T04:46:55;6.13;;;5.73;;
5085;SDS011;4715;51.660;7.082;2024-02-14T04:49:18;8.30;;;6.33;;
5085;SDS011;4715;51.660;7.082;2024-02-14T04:51:41;7.23;;;6.53;;
5085;SDS011;4715;51.660;7.082;2024-02-14T04:54:04;7.90;;;5.60;;
5085;SDS011;4715;51.660;7.082;2024-02-14T04:56:26;6.00;;;5.60;;
5085;SDS011;4715;51.660;7.082;2024-02-14T04:58:48;11.67;;;7.07;;
5085;SDS011;4715;51.660;7.082;2024-02-14T05:01:11;6.77;;;6.17;;
5085;SDS011;4715;51.660;7.082;2024-02-14T05:03:33;6.83;;;6.33;;
5085;SDS011;4715;51.660;7.082;2024-02-14T05:05:55;5.83;;;5.33;;
5085;SDS011;4715;51.660;7.082;2024-02-14T05:08:18;5.87;;;5.37;;
5085;SDS011;4715;51.660;7.082;2024-02-14T05:10:44;6.30;;;5.80;;
5085;SDS011;4715;51.660;7.082;2024-02-14T05:13:06;6.43;;;5.40;;
5085;SDS011;4715;51.660;7.082;2024-02-14T05:15:28;5.23;;;4.83;;
5085;SDS011;4715;51.660;7.082;2024-02-14T05:17:50;5.83;;;5.23;;
5085;SDS011;4715;51.660;7.082;2024-02-14T05:20:12;5.20;;;4.73;;
5085;SDS011;4715;51.660;7.082;2024-02-14T05:22:35;5.43;;;4.90;;
5085;SDS011;4715;51.660;7.082;2024-02-14T05:24:58;8.13;;;4.90;;
5085;SDS011;4715;51.660;7.082;2024-02-14T05:27:22;4.90;;;4.13;;
5085;SDS011;4715;51.660;7.082;2024-02-14T05:29:44;5.70;;;5.20;;
5085;SDS011;4715;51.660;7.082;2024-02-14T05:32:08;4.57;;;4.13;;
5085;SDS011;4715;51.660;7.082;2024-02-14T05:34:30;5.20;;;4.80;;
5085;SDS011;4715;51.660;7.082;2024-02-14T05:36:52;5.17;;;4.77;;
5085;SDS011;4715;51.660;7.082;2024-02-14T05:39:15;6.87;;;5.67;;
5085;SDS011;4715;51.660;7.082;2024-02-14T05:41:37;5.43;;;5.03;;
5085;SDS011;4715;51.660;7.082;2024-02-14T05:44:01;8.70;;;5.37;;
5085;SDS011;4715;51.660;7.082;2024-02-14T05:46:23;7.63;;;5.43;;
5085;SDS011;4715;51.660;7.082;2024-02-14T05:48:45;6.97;;;5.50;;
5085;SDS011;4715;51.660;7.082;2024-02-14T05:51:08;5.77;;;5.27;;
5085;SDS011;4715;51.660;7.082;2024-02-14T05:53:30;5.57;;;5.17;;
5085;SDS011;4715;51.660;7.082;2024-02-14T05:55:53;5.93;;;5.00;;
5085;SDS011;4715;51.660;7.082;2024-02-14T05:58:16;5.47;;;4.97;;
5085;SDS011;4715;51.660;7.082;2024-02-14T06:00:40;6.73;;;5.20;;
5085;SDS011;4715;51.660;7.082;2024-02-14T06:03:04;6.50;;;5.57;;
5085;SDS011;4715;51.660;7.082;2024-02-14T06:05:28;5.40;;;5.00;;
5085;SDS011;4715;51.660;7.082;2024-02-14T06:07:50;6.10;;;5.50;;
5085;SDS011;4715;51.660;7.082;2024-02-14T06:10:12;5.47;;;5.07;;
5085;SDS011;4715;51.660;7.082;2024-02-14T06:12:34;6.80;;;5.83;;
5085;SDS011;4715;51.660;7.082;2024-02-14T06:15:02;5.97;;;5.57;;
5085;SDS011;4715;51.660;7.082;2024-02-14T06:17:26;6.90;;;5.10;;
5085;SDS011;4715;51.660;7.082;2024-02-14T06:19:50;6.10;;;5.70;;
5085;SDS011;4715;51.660;7.082;2024-02-14T06:22:12;5.53;;;4.70;;
5085;SDS011;4715;51.660;7.082;2024-02-14T06:24:34;5.90;;;5.40;;
5085;SDS011;4715;51.660;7.082;2024-02-14T06:26:56;6.37;;;5.67;;
5085;SDS011;4715;51.660;7.082;2024-02-14T06:29:18;6.80;;;6.07;;
5085;SDS011;4715;51.660;7.082;2024-02-14T06:31:40;6.40;;;5.90;;
5085;SDS011;4715;51.660;7.082;2024-02-14T06:34:04;7.50;;;6.80;;
5085;SDS011;4715;51.660;7.082;2024-02-14T06:36:27;6.60;;;6.07;;
5085;SDS011;4715;51.660;7.082;2024-02-14T06:38:49;8.13;;;6.60;;
5085;SDS011;4715;51.660;7.082;2024-02-14T06:41:11;7.77;;;7.10;;
5085;SDS011;4715;51.660;7.082;2024-02-14T06:43:33;10.60;;;6.90;;
5085;SDS011;4715;51.660;7.082;2024-02-14T06:45:56;9.50;;;8.00;;
5085;SDS011;4715;51.660;7.082;2024-02-14T06:48:18;8.43;;;7.20;;
5085;SDS011;4715;51.660;7.082;2024-02-14T06:50:45;8.57;;;7.70;;
5085;SDS011;4715;51.660;7.082;2024-02-14T06:53:09;12.50;;;8.20;;
5085;SDS011;4715;51.660;7.082;2024-02-14T06:55:31;8.23;;;7.43;;
5085;SDS011;4715;51.660;7.082;2024-02-14T06:57:53;8.40;;;7.70;;
5085;SDS011;4715;51.660;7.082;2024-02-14T07:00:15;7.80;;;7.10;;
5085;SDS011;4715;51.660;7.082;2024-02-14T07:02:37;8.47;;;7.67;;
5085;SDS011;4715;51.660;7.082;2024-02-14T07:05:00;8.97;;;8.07;;
5085;SDS011;4715;51.660;7.082;2024-02-14T07:07:24;8.87;;;7.97;;
5085;SDS011;4715;51.660;7.082;2024-02-14T07:09:45;10.80;;;9.80;;
5085;SDS011;4715;51.660;7.082;2024-02-14T07:12:07;10.10;;;9.10;;
5085;SDS011;4715;51.660;7.082;2024-02-14T07:14:29;10.33;;;9.33;;
5085;SDS011;4715;51.660;7.082;2024-02-14T07:16:51;9.97;;;9.17;;
5085;SDS011;4715;51.660;7.082;2024-02-14T07:19:13;12.33;;;10.53;;
5085;SDS011;4715;51.660;7.082;2024-02-14T07:21:35;9.70;;;8.90;;
5085;SDS011;4715;51.660;7.082;2024-02-14T07:23:59;10.10;;;9.10;;
5085;SDS011;4715;51.660;7.082;2024-02-14T07:26:21;11.13;;;9.77;;
5085;SDS011;4715;51.660;7.082;2024-02-14T07:28:43;10.90;;;9.90;;
5085;SDS011;4715;51.660;7.082;2024-02-14T07:31:06;10.40;;;9.47;;
5085;SDS011;4715;51.660;7.082;2024-02-14T07:33:28;15.30;;;10.90;;
5085;SDS011;4715;51.660;7.082;2024-02-14T07:35:52;10.90;;;9.80;;
5085;SDS011;4715;51.660;7.082;2024-02-14T07:38:14;11.23;;;10.00;;
5085;SDS011;4715;51.660;7.082;2024-02-14T07:40:39;24.40;;;10.37;;
5085;SDS011;4715;51.660;7.082;2024-02-14T07:43:01;12.03;;;10.77;;
5085;SDS011;4715;51.660;7.082;2024-02-14T07:45:23;14.27;;;11.43;;
5085;SDS011;4715;51.660;7.082;2024-02-14T07:47:45;16.03;;;11.23;;
5085;SDS011;4715;51.660;7.082;2024-02-14T07:50:09;14.17;;;11.07;;
5085;SDS011;4715;51.660;7.082;2024-02-14T07:52:30;11.47;;;10.33;;
5085;SDS011;4715;51.660;7.082;2024-02-14T07:54:52;14.40;;;10.63;;
5085;SDS011;4715;51.660;7.082;2024-02-14T07:57:16;10.33;;;9.00;;
5085;SDS011;4715;51.660;7.082;2024-02-14T07:59:38;9.13;;;7.93;;
5085;SDS011;4715;51.660;7.082;2024-02-14T08:02:00;10.30;;;9.07;;
5085;SDS011;4715;51.660;7.082;2024-02-14T08:04:22;9.90;;;8.97;;
5085;SDS011;4715;51.660;7.082;2024-02-14T08:06:44;9.93;;;8.93;;
5085;SDS011;4715;51.660;7.082;2024-02-14T08:09:10;10.70;;;9.60;;
5085;SDS011;4715;51.660;7.082;2024-02-14T08:11:32;10.20;;;9.07;;
5085;SDS011;4715;51.660;7.082;2024-02-14T08:13:55;12.43;;;11.23;;
5085;SDS011;4715;51.660;7.082;2024-02-14T08:16:18;10.90;;;9.57;;
5085;SDS011;4715;51.660;7.082;2024-02-14T08:18:39;14.97;;;12.60;;
5085;SDS011;4715;51.660;7.082;2024-02-14T08:21:04;14.00;;;10.70;;
5085;SDS011;4715;51.660;7.082;2024-02-14T08:23:26;11.40;;;10.20;;
5085;SDS011;4715;51.660;7.082;2024-02-14T08:25:48;12.37;;;11.20;;
5085;SDS011;4715;51.660;7.082;2024-02-14T08:28:11;13.50;;;12.10;;
5085;SDS011;4715;51.660;7.082;2024-02-14T08:30:35;12.30;;;10.70;;
5085;SDS011;4715;51.660;7.082;2024-02-14T08:32:57;14.80;;;10.30;;
5085;SDS011;4715;51.660;7.082;2024-02-14T08:35:19;23.00;;;12.07;;
5085;SDS011;4715;51.660;7.082;2024-02-14T08:37:42;12.70;;;11.40;;
5085;SDS011;4715;51.660;7.082;2024-02-14T08:40:04;13.33;;;11.93;;
5085;SDS011;4715;51.660;7.082;2024-02-14T08:42:26;18.50;;;10.50;;
5085;SDS011;4715;51.660;7.082;2024-02-14T08:44:48;18.13;;;12.53;;
5085;SDS011;4715;51.660;7.082;2024-02-14T08:47:11;19.60;;;10.53;;
5085;SDS011;4715;51.660;7.082;2024-02-14T08:49:34;12.80;;;10.60;;
5085;SDS011;4715;51.660;7.082;2024-02-14T08:51:56;13.73;;;10.20;;
5085;SDS011;4715;51.660;7.082;2024-02-14T08:54:18;14.03;;;10.90;;
5085;SDS011;4715;51.660;7.082;2024-02-14T08:56:43;11.87;;;9.73;;
5085;SDS011;4715;51.660;7.082;2024-02-14T08:59:05;11.00;;;9.90;;
5085;SDS011;4715;51.660;7.082;2024-02-14T09:01:27;11.83;;;10.20;;
5085;SDS011;4715;51.660;7.082;2024-02-14T09:03:50;11.57;;;10.00;;
5085;SDS011;4715;51.660;7.082;2024-02-14T09:06:15;12.13;;;10.90;;
5085;SDS011;4715;51.660;7.082;2024-02-14T09:08:38;13.33;;;9.47;;
5085;SDS011;4715;51.660;7.082;2024-02-14T09:11:02;10.63;;;9.40;;
5085;SDS011;4715;51.660;7.082;2024-02-14T09:13:24;8.77;;;7.87;;
5085;SDS011;4715;51.660;7.082;2024-02-14T09:15:47;9.67;;;8.70;;
5085;SDS011;4715;51.660;7.082;2024-02-14T09:18:10;9.53;;;7.80;;
5085;SDS011;4715;51.660;7.082;2024-02-14T09:20:34;12.80;;;9.03;;
5085;SDS011;4715;51.660;7.082;2024-02-14T09:22:57;11.53;;;9.10;;
5085;SDS011;4715;51.660;7.082;2024-02-14T09:25:20;10.00;;;9.03;;
5085;SDS011;4715;51.660;7.082;2024-02-14T09:27:43;9.43;;;8.03;;
5085;SDS011;4715;51.660;7.082;2024-02-14T09:30:07;15.47;;;9.90;;
5085;SDS011;4715;51.660;7.082;2024-02-14T09:32:30;10.67;;;9.67;;
5085;SDS011;4715;51.660;7.082;2024-02-14T09:34:52;11.20;;;9.93;;
5085;SDS011;4715;51.660;7.082;2024-02-14T09:37:15;13.93;;;10.47;;
5085;SDS011;4715;51.660;7.082;2024-02-14T09:39:37;15.87;;;8.10;;
5085;SDS011;4715;51.660;7.082;2024-02-14T09:41:59;9.20;;;8.30;;
5085;SDS011;4715;51.660;7.082;2024-02-14T09:44:22;7.60;;;6.90;;
5085;SDS011;4715;51.660;7.082;2024-02-14T09:46:48;8.03;;;7.23;;
5085;SDS011;4715;51.660;7.082;2024-02-14T09:49:10;8.53;;;7.70;;
5085;SDS011;4715;51.660;7.082;2024-02-14T09:51:34;8.50;;;7.67;;
5085;SDS011;4715;51.660;7.082;2024-02-14T09:53:59;7.33;;;6.43;;
5085;SDS011;4715;51.660;7.082;2024-02-14T09:56:23;7.83;;;7.10;;
5085;SDS011;4715;51.660;7.082;2024-02-14T09:58:47;7.80;;;7.07;;
5085;SDS011;4715;51.660;7.082;2024-02-14T10:01:16;8.83;;;7.43;;
5085;SDS011;4715;51.660;7.082;2024-02-14T10:10:20;13.00;;;11.70;;
5085;SDS011;4715;51.660;7.082;2024-02-14T10:12:42;11.50;;;10.30;;
5085;SDS011;4715;51.660;7.082;2024-02-14T10:15:04;12.80;;;11.50;;
5085;SDS011;4715;51.660;7.082;2024-02-14T10:17:27;12.70;;;11.40;;
5085;SDS011;4715;51.660;7.082;2024-02-14T10:19:56;20.30;;;14.43;;
5085;SDS011;4715;51.660;7.082;2024-02-14T10:22:18;14.53;;;12.80;;
5085;SDS011;4715;51.660;7.082;2024-02-14T10:24:40;17.10;;;12.50;;
5085;SDS011;4715;51.660;7.082;2024-02-14T10:27:06;15.77;;;11.50;;
5085;SDS011;4715;51.660;7.082;2024-02-14T10:29:28;13.20;;;11.43;;
5085;SDS011;4715;51.660;7.082;2024-02-14T10:31:50;12.63;;;9.87;;
5085;SDS011;4715;51.660;7.082;2024-02-14T10:34:13;19.27;;;12.20;;
5085;SDS011;4715;51.660;7.082;2024-02-14T10:36:35;10.73;;;8.30;;
5085;SDS011;4715;51.660;7.082;2024-02-14T10:39:00;11.63;;;7.33;;
5085;SDS011;4715;51.660;7.082;2024-02-14T10:41:23;18.57;;;8.83;;
5085;SDS011;4715;51.660;7.082;2024-02-14T10:43:47;12.37;;;6.60;;
5085;SDS011;4715;51.660;7.082;2024-02-14T10:46:10;7.60;;;5.27;;
5085;SDS011;4715;51.660;7.082;2024-02-14T10:48:40;6.37;;;5.00;;
5085;SDS011;4715;51.660;7.082;2024-02-14T10:51:02;9.03;;;6.30;;
5085;SDS011;4715;51.660;7.082;2024-02-14T10:53:28;8.93;;;8.03;;
5085;SDS011;4715;51.660;7.082;2024-02-14T10:55:53;8.63;;;5.67;;
5085;SDS011;4715;51.660;7.082;2024-02-14T10:58:20;6.33;;;5.73;;
5085;SDS011;4715;51.660;7.082;2024-02-14T11:00:47;6.03;;;5.57;;
5085;SDS011;4715;51.660;7.082;2024-02-14T11:03:09;5.17;;;4.77;;
5085;SDS011;4715;51.660;7.082;2024-02-14T11:05:42;7.53;;;4.87;;
5085;SDS011;4715;51.660;7.082;2024-02-14T11:08:07;5.80;;;4.97;;
5085;SDS011;4715;51.660;7.082;2024-02-14T11:10:29;6.83;;;6.23;;
5085;SDS011;4715;51.660;7.082;2024-02-14T11:12:53;7.43;;;5.10;;
5085;SDS011;4715;51.660;7.082;2024-02-14T11:15:16;8.27;;;5.60;;
5085;SDS011;4715;51.660;7.082;2024-02-14T11:17:40;7.03;;;6.00;;
5085;SDS011;4715;51.660;7.082;2024-02-14T11:20:11;9.80;;;6.20;;
5085;SDS011;4715;51.660;7.082;2024-02-14T11:22:37;6.50;;;5.90;;
5085;SDS011;4715;51.660;7.082;2024-02-14T11:25:05;5.93;;;5.33;;
5085;SDS011;4715;51.660;7.082;2024-02-14T11:27:27;6.53;;;5.93;;
5085;SDS011;4715;51.660;7.082;2024-02-14T11:29:51;8.03;;;6.60;;
5085;SDS011;4715;51.660;7.082;2024-02-14T11:32:18;5.60;;;4.93;;
5085;SDS011;4715;51.660;7.082;2024-02-14T11:34:42;5.97;;;5.33;;
5085;SDS011;4715;51.660;7.082;2024-02-14T11:37:04;6.67;;;5.57;;
5085;SDS011;4715;51.660;7.082;2024-02-14T11:39:26;9.13;;;5.30;;
5085;SDS011;4715;51.660;7.082;2024-02-14T11:41:48;15.43;;;5.13;;
5085;SDS011;4715;51.660;7.082;2024-02-14T11:44:10;5.57;;;5.17;;
5085;SDS011;4715;51.660;7.082;2024-02-14T11:46:33;5.53;;;4.70;;
5085;SDS011;4715;51.660;7.082;2024-02-14T11:48:55;6.07;;;4.80;;
5085;SDS011;4715;51.660;7.082;2024-02-14T11:51:19;5.27;;;4.37;;
5085;SDS011;4715;51.660;7.082;2024-02-14T11:53:41;10.90;;;5.20;;
5085;SDS011;4715;51.660;7.082;2024-02-14T11:56:03;9.43;;;4.57;;
5085;SDS011;4715;51.660;7.082;2024-02-14T11:58:27;7.37;;;5.33;;
5085;SDS011;4715;51.660;7.082;2024-02-14T12:00:50;5.60;;;5.07;;
5085;SDS011;4715;51.660;7.082;2024-02-14T12:03:16;5.70;;;5.10;;
5085;SDS011;4715;51.660;7.082;2024-02-14T12:05:40;5.00;;;4.50;;
5085;SDS011;4715;51.660;7.082;2024-02-14T12:08:11;4.80;;;4.50;;
5085;SDS011;4715;51.660;7.082;2024-02-14T12:10:37;5.93;;;5.30;;
5085;SDS011;4715;51.660;7.082;2024-02-14T12:13:04;5.77;;;5.27;;
5085;SDS011;4715;51.660;7.082;2024-02-14T12:15:36;8.07;;;5.07;;
5085;SDS011;4715;51.660;7.082;2024-02-14T12:17:59;5.90;;;5.23;;
5085;SDS011;4715;51.660;7.082;2024-02-14T12:20:21;6.40;;;4.83;;
5085;SDS011;4715;51.660;7.082;2024-02-14T12:22:43;5.70;;;4.90;;
5085;SDS011;4715;51.660;7.082;2024-02-14T12:25:12;5.13;;;4.73;;
5085;SDS011;4715;51.660;7.082;2024-02-14T12:27:34;5.30;;;4.43;;
5085;SDS011;4715;51.660;7.082;2024-02-14T12:29:55;9.43;;;4.97;;
5085;SDS011;4715;51.660;7.082;2024-02-14T12:32:17;5.37;;;4.97;;
5085;SDS011;4715;51.660;7.082;2024-02-14T12:34:39;7.23;;;3.83;;
5085;SDS011;4715;51.660;7.082;2024-02-14T12:37:04;4.70;;;4.27;;
5085;SDS011;4715;51.660;7.082;2024-02-14T12:39:26;4.77;;;3.60;;
5085;SDS011;4715;51.660;7.082;2024-02-14T12:41:50;2.83;;;2.63;;
5085;SDS011;4715;51.660;7.082;2024-02-14T12:44:12;2.57;;;2.40;;
5085;SDS011;4715;51.660;7.082;2024-02-14T12:46:38;3.60;;;3.40;;
5085;SDS011;4715;51.660;7.082;2024-02-14T12:49:00;5.43;;;2.60;;
5085;SDS011;4715;51.660;7.082;2024-02-14T12:51:24;3.40;;;3.10;;
5085;SDS011;4715;51.660;7.082;2024-02-14T12:53:49;3.77;;;3.03;;
5085;SDS011;4715;51.660;7.082;2024-02-14T12:56:12;4.60;;;2.90;;
5085;SDS011;4715;51.660;7.082;2024-02-14T12:58:35;4.00;;;3.00;;
5085;SDS011;4715;51.660;7.082;2024-02-14T13:00:58;3.37;;;2.30;;
5085;SDS011;4715;51.660;7.082;2024-02-14T13:03:21;2.23;;;2.13;;
5085;SDS011;4715;51.660;7.082;2024-02-14T13:05:43;2.60;;;2.40;;
5085;SDS011;4715;51.660;7.082;2024-02-14T13:08:05;3.43;;;2.53;;
5085;SDS011;4715;51.660;7.082;2024-02-14T13:10:29;3.87;;;3.43;;
5085;SDS011;4715;51.660;7.082;2024-02-14T13:12:51;3.50;;;3.30;;
5085;SDS011;4715;51.660;7.082;2024-02-14T13:15:14;3.23;;;3.03;;
5085;SDS011;4715;51.660;7.082;2024-02-14T13:17:36;3.97;;;3.77;;
5085;SDS011;4715;51.660;7.082;2024-02-14T13:20:00;3.80;;;3.50;;
5085;SDS011;4715;51.660;7.082;2024-02-14T13:22:22;4.50;;;4.10;;
5085;SDS011;4715;51.660;7.082;2024-02-14T13:24:48;3.07;;;2.87;;
5085;SDS011;4715;51.660;7.082;2024-02-14T13:27:10;3.50;;;3.30;;
5085;SDS011;4715;51.660;7.082;2024-02-14T13:29:32;3.33;;;3.03;;
5085;SDS011;4715;51.660;7.082;2024-02-14T13:31:57;3.00;;;2.73;;
5085;SDS011;4715;51.660;7.082;2024-02-14T13:34:22;4.57;;;3.20;;
5085;SDS011;4715;51.660;7.082;2024-02-14T13:36:45;4.07;;;3.87;;
5085;SDS011;4715;51.660;7.082;2024-02-14T13:39:08;3.23;;;3.03;;
5085;SDS011;4715;51.660;7.082;2024-02-14T13:41:33;3.70;;;2.73;;
5085;SDS011;4715;51.660;7.082;2024-02-14T13:43:56;3.90;;;3.70;;
5085;SDS011;4715;51.660;7.082;2024-02-14T13:46:18;4.87;;;4.50;;
5085;SDS011;4715;51.660;7.082;2024-02-14T13:48:42;5.20;;;4.80;;
5085;SDS011;4715;51.660;7.082;2024-02-14T13:51:04;4.27;;;3.97;;
5085;SDS011;4715;51.660;7.082;2024-02-14T13:53:29;5.10;;;4.80;;
5085;SDS011;4715;51.660;7.082;2024-02-14T13:55:51;6.50;;;5.90;;
5085;SDS011;4715;51.660;7.082;2024-02-14T13:58:14;6.07;;;5.67;;
5085;SDS011;4715;51.660;7.082;2024-02-14T14:00:38;6.00;;;5.60;;
5085;SDS011;4715;51.660;7.082;2024-02-14T14:03:00;6.67;;;5.07;;
5085;SDS011;4715;51.660;7.082;2024-02-14T14:05:26;6.20;;;5.70;;
5085;SDS011;4715;51.660;7.082;2024-02-14T14:07:49;7.50;;;5.77;;
5085;SDS011;4715;51.660;7.082;2024-02-14T14:10:12;6.63;;;6.03;;
5085;SDS011;4715;51.660;7.082;2024-02-14T14:12:33;5.60;;;5.10;;
5085;SDS011;4715;51.660;7.082;2024-02-14T14:14:56;8.30;;;5.90;;
5085;SDS011;4715;51.660;7.082;2024-02-14T14:17:17;5.43;;;4.90;;
5085;SDS011;4715;51.660;7.082;2024-02-14T14:19:39;5.77;;;5.20;;
5085;SDS011;4715;51.660;7.082;2024-02-14T14:22:03;5.70;;;5.13;;
5085;SDS011;4715;51.660;7.082;2024-02-14T14:24:25;4.37;;;4.07;;
5085;SDS011;4715;51.660;7.082;2024-02-14T14:26:50;4.80;;;4.40;;
5085;SDS011;4715;51.660;7.082;2024-02-14T14:29:12;4.60;;;4.20;;
5085;SDS011;4715;51.660;7.082;2024-02-14T14:31:34;4.47;;;4.03;;
5085;SDS011;4715;51.660;7.082;2024-02-14T14:33:57;4.17;;;3.77;;
5085;SDS011;4715;51.660;7.082;2024-02-14T14:36:19;4.17;;;3.87;;
5085;SDS011;4715;51.660;7.082;2024-02-14T14:38:43;4.53;;;4.13;;
5085;SDS011;4715;51.660;7.082;2024-02-14T14:41:05;5.07;;;3.90;;
5085;SDS011;4715;51.660;7.082;2024-02-14T14:43:27;3.10;;;2.90;;
5085;SDS011;4715;51.660;7.082;2024-02-14T14:45:49;3.97;;;3.67;;
5085;SDS011;4715;51.660;7.082;2024-02-14T14:48:13;4.53;;;3.70;;
5085;SDS011;4715;51.660;7.082;2024-02-14T14:50:34;5.67;;;4.60;;